Time;durP1;ratioP1;P1;durP2;ratioP2;P2;SDS_P1;SDS_P2;PMS_P1;PMS_P2;Temp;Humidity;BMP_temperature;BMP_pressure;BME280_temperature;BME280_humidity;BME280_pressure;Samples;Min_cycle;Max_cycle;Signal;HPM_P1;HPM_P2
2023/05/29 00:01:18;;;;;;;4.90;3.57;;;;;;;15.45;97.77;100265.97;5003646;28;20304;-83
2023/05/29 00:03:44;;;;;;;11.70;3.73;;;;;;;15.28;99.38;100267.19;5011344;28;20209;-84
2023/05/29 00:06:10;;;;;;;6.03;3.60;;;;;;;15.23;100.00;100277.91;5012065;28;20587;-77
2023/05/29 00:08:35;;;;;;;4.27;3.43;;;;;;;15.12;100.00;100280.41;5012327;28;20189;-82
2023/05/29 00:11:01;;;;;;;5.03;4.00;;;;;;;15.01;100.00;100266.47;5004873;28;20728;-72
2023/05/29 00:13:26;;;;;;;6.53;4.17;;;;;;;14.96;100.00;100267.75;5012488;28;20536;-72
2023/05/29 00:15:52;;;;;;;7.43;3.50;;;;;;;14.90;100.00;100268.16;5008639;28;20211;-76
2023/05/29 00:18:17;;;;;;;10.07;3.77;;;;;;;14.91;100.00;100264.63;5012262;28;20194;-81
2023/05/29 00:20:42;;;;;;;6.77;3.63;;;;;;;14.88;100.00;100260.47;4993622;28;20720;-76
2023/05/29 00:23:09;;;;;;;5.87;3.37;;;;;;;14.79;100.00;100259.38;5010629;28;20175;-76
2023/05/29 00:25:35;;;;;;;4.83;3.93;;;;;;;14.83;100.00;100257.41;5002001;28;20186;-80
2023/05/29 00:28:00;;;;;;;5.73;4.03;;;;;;;14.75;100.00;100257.09;5006200;28;20201;-79
2023/05/29 00:30:25;;;;;;;5.03;3.77;;;;;;;14.58;100.00;100256.47;5001917;28;20237;-79
2023/05/29 00:32:52;;;;;;;6.30;3.70;;;;;;;14.55;100.00;100256.69;5008090;28;20279;-79
2023/05/29 00:35:17;;;;;;;3.57;3.13;;;;;;;14.54;100.00;100257.63;4999768;28;20576;-81
2023/05/29 00:37:42;;;;;;;5.13;3.40;;;;;;;14.45;100.00;100251.31;5004870;28;20187;-80
2023/05/29 00:40:09;;;;;;;3.73;3.23;;;;;;;14.45;100.00;100253.91;4992473;28;20171;-78
2023/05/29 00:42:34;;;;;;;5.50;3.87;;;;;;;14.39;100.00;100251.75;5010284;28;20630;-78
2023/05/29 00:44:59;;;;;;;6.07;3.77;;;;;;;14.29;100.00;100254.13;5007741;28;20339;-77
2023/05/29 00:47:25;;;;;;;4.87;3.70;;;;;;;14.25;100.00;100252.69;5009620;28;20273;-76
2023/05/29 00:49:51;;;;;;;5.67;4.10;;;;;;;14.23;100.00;100248.53;4999013;28;20191;-78
2023/05/29 00:52:18;;;;;;;6.47;3.53;;;;;;;14.18;100.00;100248.84;5012495;28;20221;-77
2023/05/29 00:54:45;;;;;;;7.20;3.73;;;;;;;14.12;100.00;100244.09;5003441;28;20186;-76
2023/05/29 00:57:12;;;;;;;5.60;3.77;;;;;;;14.13;100.00;100240.56;5019747;28;20257;-77
2023/05/29 00:59:39;;;;;;;5.00;3.57;;;;;;;14.08;100.00;100240.88;5004643;28;20205;-78
2023/05/29 01:02:05;;;;;;;7.53;3.63;;;;;;;14.04;100.00;100242.84;5003231;28;20641;-80
2023/05/29 01:04:33;;;;;;;5.67;3.50;;;;;;;13.96;100.00;100242.50;5011284;28;20189;-82
2023/05/29 01:07:00;;;;;;;6.63;3.37;;;;;;;13.89;100.00;100251.59;5006838;28;20175;-81
2023/05/29 01:09:25;;;;;;;5.10;3.37;;;;;;;13.87;100.00;100251.72;5002853;28;20198;-87
2023/05/29 01:12:23;;;;;;;5.27;3.63;;;;;;;13.72;100.00;100248.38;5014915;28;20230;-77
2023/05/29 01:14:57;;;;;;;5.23;3.83;;;;;;;13.68;100.00;100241.75;5008567;28;20190;-74
2023/05/29 01:17:43;;;;;;;8.23;3.77;;;;;;;13.59;100.00;100250.09;5007507;28;20630;-75
2023/05/29 01:20:17;;;;;;;6.30;3.23;;;;;;;13.60;100.00;100249.19;5001771;28;20228;-73
2023/05/29 01:23:15;;;;;;;4.73;3.77;;;;;;;13.54;100.00;100244.41;5007860;28;20179;-69
2023/05/29 01:26:11;;;;;;;5.30;3.00;;;;;;;13.43;100.00;100241.69;5008157;28;20265;-77
2023/05/29 01:28:42;;;;;;;6.47;3.90;;;;;;;13.40;100.00;100240.94;5007612;28;20279;-75
2023/05/29 01:31:09;;;;;;;6.07;4.27;;;;;;;13.38;100.00;100245.41;4994403;28;20701;-78
2023/05/29 01:33:38;;;;;;;7.70;4.17;;;;;;;13.33;100.00;100236.25;5018493;28;20179;-76
2023/05/29 01:36:04;;;;;;;8.30;4.57;;;;;;;13.29;100.00;100251.13;5009624;28;20234;-78
2023/05/29 01:38:29;;;;;;;7.27;4.10;;;;;;;13.14;100.00;100242.59;5011401;28;20202;-76
2023/05/29 01:40:54;;;;;;;6.10;4.03;;;;;;;13.14;100.00;100240.00;5008222;28;20316;-76
2023/05/29 01:43:20;;;;;;;4.60;3.77;;;;;;;13.01;100.00;100252.00;5010419;28;20179;-76
2023/05/29 01:45:45;;;;;;;7.07;3.80;;;;;;;13.10;100.00;100248.03;5011140;28;20199;-77
2023/05/29 01:48:11;;;;;;;5.47;3.57;;;;;;;13.05;100.00;100243.19;5011326;28;20179;-76
2023/05/29 01:50:36;;;;;;;5.27;4.13;;;;;;;12.97;100.00;100242.81;5005824;28;20229;-76
2023/05/29 01:53:02;;;;;;;5.20;4.00;;;;;;;12.90;100.00;100239.78;5019850;28;20201;-75
2023/05/29 01:55:27;;;;;;;6.67;3.53;;;;;;;12.85;100.00;100244.38;5011184;28;20213;-75
2023/05/29 01:57:54;;;;;;;5.80;3.87;;;;;;;12.84;100.00;100238.41;5011267;28;20233;-75
2023/05/29 02:00:20;;;;;;;5.17;4.00;;;;;;;12.73;100.00;100238.25;5001889;28;20261;-76
2023/05/29 02:02:45;;;;;;;4.73;3.87;;;;;;;12.73;100.00;100227.91;5011510;28;20261;-77
2023/05/29 02:05:10;;;;;;;4.80;3.73;;;;;;;12.70;100.00;100228.94;5010869;28;20190;-76
2023/05/29 02:07:39;;;;;;;4.93;3.60;;;;;;;12.61;100.00;100237.22;5011591;28;20175;-77
2023/05/29 02:10:05;;;;;;;5.87;4.03;;;;;;;12.58;100.00;100235.66;5001117;28;20193;-77
2023/05/29 02:12:30;;;;;;;6.97;3.87;;;;;;;12.54;100.00;100231.63;5013556;28;20302;-77
2023/05/29 02:14:56;;;;;;;5.67;3.87;;;;;;;12.46;100.00;100228.66;5011218;28;20274;-76
2023/05/29 02:17:22;;;;;;;3.97;3.53;;;;;;;12.43;100.00;100226.28;5007236;28;20679;-76
2023/05/29 02:19:47;;;;;;;4.97;3.83;;;;;;;12.33;100.00;100225.16;5011041;28;20203;-76
2023/05/29 02:22:12;;;;;;;5.93;4.07;;;;;;;12.32;100.00;100218.38;5003651;28;20684;-75
2023/05/29 02:24:38;;;;;;;6.87;4.20;;;;;;;12.31;100.00;100222.69;5009684;28;20192;-74
2023/05/29 02:27:03;;;;;;;7.17;3.77;;;;;;;12.33;100.00;100215.69;5013206;28;20186;-75
2023/05/29 02:29:28;;;;;;;5.40;3.73;;;;;;;12.29;100.00;100221.13;5003501;28;20249;-76
2023/05/29 02:31:54;;;;;;;6.70;4.03;;;;;;;12.35;100.00;100223.34;5015679;28;20226;-76
2023/05/29 02:34:22;;;;;;;8.17;4.17;;;;;;;12.26;100.00;100230.69;5015762;28;20202;-78
2023/05/29 02:36:48;;;;;;;8.00;4.17;;;;;;;12.26;100.00;100232.44;5012476;28;20551;-78
2023/05/29 02:39:13;;;;;;;6.03;4.43;;;;;;;12.23;100.00;100224.88;5013563;28;20276;-77
2023/05/29 02:41:38;;;;;;;6.93;4.30;;;;;;;12.13;100.00;100226.34;5016584;28;20293;-77
2023/05/29 02:44:04;;;;;;;7.80;4.17;;;;;;;12.22;100.00;100223.25;5017543;28;20179;-78
2023/05/29 02:46:29;;;;;;;5.33;3.93;;;;;;;12.21;100.00;100216.44;5013909;28;20537;-76
2023/05/29 02:48:54;;;;;;;6.07;4.00;;;;;;;12.21;100.00;100219.00;5013150;28;20278;-78
2023/05/29 02:51:20;;;;;;;4.23;3.80;;;;;;;12.21;100.00;100221.59;5005991;28;20564;-77
2023/05/29 02:53:45;;;;;;;7.83;4.50;;;;;;;12.19;100.00;100220.84;5013235;28;20187;-77
2023/05/29 02:56:12;;;;;;;7.47;4.40;;;;;;;12.18;100.00;100220.03;5013357;28;20210;-78
2023/05/29 02:58:37;;;;;;;5.30;4.27;;;;;;;12.18;100.00;100220.03;5014395;28;20179;-77
2023/05/29 03:01:03;;;;;;;5.00;4.23;;;;;;;12.09;100.00;100213.66;4995068;28;20209;-77
2023/05/29 03:03:29;;;;;;;6.93;3.70;;;;;;;12.16;100.00;100221.84;5021790;28;20266;-77
2023/05/29 03:05:54;;;;;;;6.77;4.00;;;;;;;12.11;100.00;100218.72;5013097;28;20713;-78
2023/05/29 03:08:20;;;;;;;5.73;4.33;;;;;;;12.11;100.00;100213.56;5012836;28;20183;-76
2023/05/29 03:10:47;;;;;;;5.93;3.87;;;;;;;12.15;100.00;100215.03;5008930;28;20229;-77
2023/05/29 03:13:12;;;;;;;4.53;3.63;;;;;;;12.15;100.00;100207.28;5012896;28;20181;-77
2023/05/29 03:15:37;;;;;;;4.33;3.93;;;;;;;12.08;100.00;100209.41;5007742;28;20309;-77
2023/05/29 03:18:03;;;;;;;6.53;4.13;;;;;;;12.10;100.00;100212.72;5012065;28;20217;-77
2023/05/29 03:20:28;;;;;;;7.20;4.50;;;;;;;11.98;100.00;100223.75;5005219;28;20247;-77
2023/05/29 03:22:53;;;;;;;7.40;3.97;;;;;;;11.93;100.00;100224.00;5025773;28;20187;-77
2023/05/29 03:25:20;;;;;;;6.47;4.17;;;;;;;11.92;100.00;100219.75;5013463;28;20193;-77
2023/05/29 03:27:45;;;;;;;6.43;3.80;;;;;;;11.91;100.00;100212.94;5012632;28;20201;-77
2023/05/29 03:30:11;;;;;;;7.67;4.27;;;;;;;11.94;100.00;100224.81;4970234;28;20647;-77
2023/05/29 03:32:37;;;;;;;7.30;4.17;;;;;;;11.94;100.00;100228.25;4996563;28;20186;-76
2023/05/29 03:35:03;;;;;;;8.63;4.27;;;;;;;11.96;100.00;100228.19;5011540;28;20175;-76
2023/05/29 03:37:29;;;;;;;5.20;4.67;;;;;;;11.91;100.00;100230.19;5012151;28;20181;-76
2023/05/29 03:39:54;;;;;;;4.17;3.77;;;;;;;11.81;100.00;100241.91;5013396;28;20515;-75
2023/05/29 03:42:20;;;;;;;8.83;4.33;;;;;;;11.89;100.00;100234.56;5002869;28;20584;-76
2023/05/29 03:44:45;;;;;;;6.17;4.00;;;;;;;11.93;100.00;100242.06;5013199;28;20273;-76
2023/05/29 03:47:11;;;;;;;6.27;3.97;;;;;;;12.03;100.00;100251.84;5013418;28;20193;-75
2023/05/29 03:49:36;;;;;;;7.03;3.90;;;;;;;12.04;100.00;100250.94;5011900;28;20190;-76
2023/05/29 03:52:01;;;;;;;7.33;3.90;;;;;;;12.05;100.00;100252.59;5005034;28;20313;-77
2023/05/29 03:54:27;;;;;;;6.37;4.37;;;;;;;12.14;100.00;100253.81;5013318;28;20198;-77
2023/05/29 03:56:52;;;;;;;7.13;4.03;;;;;;;12.09;100.00;100264.38;5012996;28;20234;-77
2023/05/29 03:59:17;;;;;;;5.97;4.30;;;;;;;12.09;100.00;100264.38;5013106;28;20198;-76
2023/05/29 04:01:42;;;;;;;9.90;5.07;;;;;;;12.22;100.00;100267.09;5005113;28;20218;-76
2023/05/29 04:04:08;;;;;;;6.70;3.97;;;;;;;12.28;100.00;100271.88;5015059;28;20233;-76
2023/05/29 04:06:33;;;;;;;8.13;4.53;;;;;;;12.39;100.00;100272.09;5012987;28;20182;-76
2023/05/29 04:08:58;;;;;;;6.27;4.20;;;;;;;12.45;100.00;100273.44;5012989;28;20190;-77
2023/05/29 04:11:24;;;;;;;7.07;4.10;;;;;;;12.49;100.00;100279.25;5013156;28;20299;-77
2023/05/29 04:13:49;;;;;;;7.07;4.83;;;;;;;12.50;100.00;100279.19;5017618;28;20273;-76
2023/05/29 04:16:15;;;;;;;6.87;4.23;;;;;;;12.59;100.00;100286.38;5012306;28;20503;-76
2023/05/29 04:18:43;;;;;;;6.10;4.63;;;;;;;12.49;100.00;100281.84;5012602;28;20332;-76
2023/05/29 04:21:10;;;;;;;6.20;3.77;;;;;;;12.57;100.00;100290.78;5011356;28;20384;-76
2023/05/29 04:23:35;;;;;;;4.63;3.60;;;;;;;12.66;100.00;100289.38;5019490;28;20175;-78
2023/05/29 04:26:05;;;;;;;5.97;3.63;;;;;;;12.84;100.00;100297.78;5012129;28;20198;-77
2023/05/29 04:28:30;;;;;;;6.33;3.90;;;;;;;12.94;100.00;100294.63;5009073;28;20190;-78
2023/05/29 04:30:56;;;;;;;6.63;3.50;;;;;;;12.84;100.00;100309.88;4998646;28;20233;-77
2023/05/29 04:33:23;;;;;;;7.30;3.67;;;;;;;12.99;100.00;100313.28;5020544;28;20193;-77
2023/05/29 04:35:48;;;;;;;4.63;3.63;;;;;;;13.07;100.00;100306.72;5010577;28;20301;-77
2023/05/29 04:38:14;;;;;;;6.17;4.03;;;;;;;13.19;100.00;100317.19;5012256;28;20661;-77
2023/05/29 04:40:40;;;;;;;6.23;3.87;;;;;;;13.36;100.00;100318.75;5007365;28;20237;-76
2023/05/29 04:43:06;;;;;;;4.93;3.93;;;;;;;13.45;100.00;100318.19;5010148;28;20634;-76
2023/05/29 04:45:31;;;;;;;5.90;3.50;;;;;;;13.59;100.00;100319.88;5010728;28;20183;-77
2023/05/29 04:47:56;;;;;;;9.53;4.23;;;;;;;13.77;100.00;100324.78;5012250;28;20835;-77
2023/05/29 04:50:23;;;;;;;5.70;3.90;;;;;;;13.79;100.00;100328.13;5005270;28;20222;-77
2023/05/29 04:52:48;;;;;;;5.77;3.63;;;;;;;13.94;100.00;100328.88;5011188;28;20232;-77
2023/05/29 04:55:14;;;;;;;4.57;3.93;;;;;;;14.07;100.00;100331.53;5012096;28;20564;-78
2023/05/29 04:57:40;;;;;;;4.80;3.47;;;;;;;14.31;100.00;100335.06;5011259;28;20241;-76
2023/05/29 05:00:07;;;;;;;8.53;4.13;;;;;;;14.46;100.00;100340.97;5002363;28;20182;-78
2023/05/29 05:02:32;;;;;;;5.67;4.13;;;;;;;14.50;100.00;100342.41;5010592;28;20187;-75
2023/05/29 05:04:58;;;;;;;5.27;3.87;;;;;;;14.63;100.00;100347.59;5010639;28;20194;-77
2023/05/29 05:07:24;;;;;;;7.70;3.90;;;;;;;14.74;100.00;100354.66;5012192;28;20630;-76
2023/05/29 05:09:49;;;;;;;6.00;3.80;;;;;;;14.84;100.00;100352.28;5012257;28;20642;-76
2023/05/29 05:12:15;;;;;;;5.53;3.77;;;;;;;15.06;100.00;100356.81;5016752;28;20265;-75
2023/05/29 05:14:40;;;;;;;11.07;3.67;;;;;;;15.22;100.00;100360.91;5012342;28;20184;-75
2023/05/29 05:17:05;;;;;;;6.03;3.60;;;;;;;15.33;100.00;100363.56;5011317;28;20248;-75
2023/05/29 05:19:31;;;;;;;3.53;2.90;;;;;;;15.45;100.00;100362.72;5012028;28;20206;-75
2023/05/29 05:21:56;;;;;;;6.30;3.90;;;;;;;15.74;100.00;100369.34;5015787;28;20683;-74
2023/05/29 05:24:21;;;;;;;5.50;3.70;;;;;;;15.95;100.00;100367.00;5012924;28;20237;-75
2023/05/29 05:26:46;;;;;;;12.57;3.93;;;;;;;16.15;100.00;100370.75;5009972;28;20554;-75
2023/05/29 05:29:13;;;;;;;6.67;4.00;;;;;;;16.22;100.00;100374.53;5004074;28;20187;-74
2023/05/29 05:31:38;;;;;;;6.53;3.77;;;;;;;16.52;98.96;100370.59;5008905;28;20241;-74
2023/05/29 05:34:04;;;;;;;5.93;4.07;;;;;;;16.56;98.40;100376.34;5014603;28;20183;-75
2023/05/29 05:36:29;;;;;;;5.87;3.90;;;;;;;16.63;97.46;100372.34;5011575;28;20309;-75
2023/05/29 05:38:54;;;;;;;5.93;3.73;;;;;;;16.74;96.89;100372.38;5012042;28;20511;-75
2023/05/29 05:41:21;;;;;;;7.20;4.17;;;;;;;16.64;96.48;100379.22;5011303;28;20598;-75
2023/05/29 05:43:46;;;;;;;6.87;4.00;;;;;;;16.56;98.05;100372.00;5017336;28;20178;-74
2023/05/29 05:46:12;;;;;;;5.80;3.70;;;;;;;16.58;98.76;100383.13;5010924;28;20249;-74
2023/05/29 05:48:40;;;;;;;6.80;3.80;;;;;;;16.57;98.78;100371.06;5010500;28;20616;-75
2023/05/29 05:51:05;;;;;;;8.07;3.47;;;;;;;16.69;97.44;100378.88;5009683;28;20295;-74
2023/05/29 05:53:30;;;;;;;4.63;3.30;;;;;;;16.79;97.59;100379.81;5019094;28;20183;-74
2023/05/29 05:55:55;;;;;;;6.93;3.93;;;;;;;16.89;96.28;100378.19;4999512;28;20199;-73
2023/05/29 05:58:21;;;;;;;5.53;3.87;;;;;;;17.04;95.85;100385.75;5015425;28;20191;-74
2023/05/29 06:00:46;;;;;;;6.67;3.73;;;;;;;17.24;94.37;100384.22;5010709;28;20229;-75
2023/05/29 06:03:11;;;;;;;5.53;3.50;;;;;;;17.35;94.91;100386.81;5025029;28;20191;-75
2023/05/29 06:05:38;;;;;;;4.53;3.27;;;;;;;17.39;95.46;100377.81;5014780;28;20274;-75
2023/05/29 06:08:04;;;;;;;5.53;3.23;;;;;;;17.79;92.30;100394.63;5013874;28;20179;-75
2023/05/29 06:10:29;;;;;;;7.27;3.73;;;;;;;17.93;91.35;100387.47;5008454;28;20596;-75
2023/05/29 06:12:54;;;;;;;6.73;3.90;;;;;;;18.04;87.56;100380.47;5027496;28;20229;-75
2023/05/29 06:15:20;;;;;;;5.27;3.33;;;;;;;18.64;86.08;100379.91;5014612;28;20182;-75
2023/05/29 06:17:45;;;;;;;7.50;3.30;;;;;;;18.96;80.14;100381.56;5014136;28;20195;-75
2023/05/29 06:20:11;;;;;;;7.50;4.13;;;;;;;19.68;74.30;100392.75;5005545;28;20662;-75
2023/05/29 06:22:37;;;;;;;6.43;3.50;;;;;;;19.78;73.35;100389.31;5025198;28;20261;-75
2023/05/29 06:25:02;;;;;;;7.00;3.23;;;;;;;20.55;68.86;100398.06;5024029;28;20540;-75
2023/05/29 06:27:28;;;;;;;3.80;3.13;;;;;;;21.73;62.44;100406.22;5013882;28;20179;-74
2023/05/29 06:29:53;;;;;;;4.83;3.30;;;;;;;22.84;55.10;100396.22;5001484;28;20207;-74
2023/05/29 06:32:18;;;;;;;7.27;3.67;;;;;;;23.24;51.32;100399.22;5020209;28;20283;-74
2023/05/29 06:34:43;;;;;;;5.33;3.30;;;;;;;23.60;50.00;100399.78;5013737;28;20542;-74
2023/05/29 06:37:09;;;;;;;4.17;3.07;;;;;;;23.91;48.82;100398.34;5013994;28;20199;-75
2023/05/29 06:39:34;;;;;;;6.07;3.20;;;;;;;24.15;47.18;100413.28;5014985;28;20196;-74
2023/05/29 06:42:01;;;;;;;6.90;3.20;;;;;;;25.16;43.81;100405.84;5019248;28;20253;-74
2023/05/29 06:44:26;;;;;;;5.10;3.40;;;;;;;26.17;41.67;100408.50;5014683;28;20183;-75
2023/05/29 06:46:51;;;;;;;5.90;3.40;;;;;;;25.27;42.58;100410.72;5013846;28;20281;-75
2023/05/29 06:49:17;;;;;;;5.55;3.22;;;;;;;26.81;40.75;100407.19;5013312;28;20206;-75
2023/05/29 06:51:43;;;;;;;3.85;3.03;;;;;;;27.26;38.14;100412.41;5005766;28;20218;-75
2023/05/29 06:54:08;;;;;;;4.40;3.35;;;;;;;27.53;38.08;100408.25;5016776;28;20224;-75
2023/05/29 06:56:33;;;;;;;4.90;3.53;;;;;;;26.82;38.21;100400.94;5013771;28;20190;-75
2023/05/29 06:58:58;;;;;;;3.75;2.83;;;;;;;27.65;37.22;100399.84;5013213;28;20232;-75
2023/05/29 07:01:24;;;;;;;5.32;3.35;;;;;;;26.89;37.32;100393.91;4993239;28;20632;-75
2023/05/29 07:03:52;;;;;;;4.38;2.80;;;;;;;26.28;37.84;100399.31;5013891;28;20186;-73
2023/05/29 07:06:17;;;;;;;3.85;3.08;;;;;;;25.80;39.02;100411.91;5011627;28;20194;-73
2023/05/29 07:08:42;;;;;;;5.50;2.97;;;;;;;24.49;41.12;100418.34;5014205;28;20193;-73
2023/05/29 07:11:08;;;;;;;4.95;3.25;;;;;;;24.94;40.81;100407.41;5012201;28;20331;-73
2023/05/29 07:13:33;;;;;;;7.00;3.42;;;;;;;24.84;40.49;100415.50;5021083;28;20553;-73
2023/05/29 07:15:58;;;;;;;5.90;3.05;;;;;;;24.85;39.17;100424.22;5004644;28;20575;-73
2023/05/29 07:18:23;;;;;;;5.60;2.70;;;;;;;23.35;42.11;100423.34;5012809;28;20179;-73
2023/05/29 07:20:49;;;;;;;5.00;2.92;;;;;;;24.00;41.79;100421.84;5009456;28;20229;-73
2023/05/29 07:23:14;;;;;;;5.28;3.00;;;;;;;24.73;40.50;100426.38;5013556;28;20631;-73
2023/05/29 07:25:39;;;;;;;7.03;2.90;;;;;;;25.78;39.00;100417.34;5013142;28;20197;-74
2023/05/29 07:28:05;;;;;;;5.03;3.28;;;;;;;25.70;37.88;100423.50;5013766;28;20194;-73
2023/05/29 07:30:30;;;;;;;6.07;3.42;;;;;;;25.67;37.88;100425.66;4982912;28;20555;-74
2023/05/29 07:32:55;;;;;;;7.40;3.42;;;;;;;25.46;38.60;100427.09;5012889;28;20179;-74
2023/05/29 07:35:21;;;;;;;4.15;2.85;;;;;;;26.62;36.53;100436.72;5013053;28;20248;-75
2023/05/29 07:37:48;;;;;;;9.23;2.85;;;;;;;25.55;37.73;100441.03;5012487;28;20272;-75
2023/05/29 07:40:13;;;;;;;4.35;3.10;;;;;;;25.58;37.43;100436.25;5003346;28;20665;-75
2023/05/29 07:42:38;;;;;;;5.20;3.17;;;;;;;26.18;35.92;100433.84;5012450;28;20186;-75
2023/05/29 07:45:04;;;;;;;4.65;3.30;;;;;;;27.44;33.99;100440.25;5011526;28;20650;-75
2023/05/29 07:47:30;;;;;;;5.25;3.47;;;;;;;28.47;33.99;100434.69;5012430;28;20190;-75
2023/05/29 07:49:55;;;;;;;6.35;3.05;;;;;;;26.84;34.29;100442.97;5007931;28;20198;-74
2023/05/29 07:52:20;;;;;;;4.30;2.90;;;;;;;26.96;35.70;100443.34;4998913;28;20237;-75
2023/05/29 07:54:45;;;;;;;8.98;2.95;;;;;;;28.17;32.96;100440.19;5012364;28;20194;-75
2023/05/29 07:57:11;;;;;;;4.60;3.17;;;;;;;27.98;33.56;100446.88;5012878;28;20217;-74
2023/05/29 07:59:37;;;;;;;4.75;3.00;;;;;;;27.31;33.92;100452.28;5011518;28;20290;-75
2023/05/29 08:02:03;;;;;;;4.07;2.97;;;;;;;27.07;35.06;100450.78;5004679;28;20278;-81
2023/05/29 08:04:29;;;;;;;5.65;3.38;;;;;;;27.11;35.04;100449.41;5012224;28;20261;-79
2023/05/29 08:06:54;;;;;;;4.72;2.72;;;;;;;27.36;33.77;100449.91;5012915;28;20678;-80
2023/05/29 08:09:20;;;;;;;4.32;3.03;;;;;;;27.22;33.75;100446.28;5013278;28;20183;-88
2023/05/29 08:11:46;;;;;;;5.07;3.28;;;;;;;27.21;33.13;100460.50;5014403;28;20243;-82
2023/05/29 08:14:12;;;;;;;6.75;2.85;;;;;;;27.37;33.19;100440.16;5010114;28;20273;-88
2023/05/29 08:16:37;;;;;;;6.57;3.42;;;;;;;27.80;33.36;100440.22;5010638;28;20654;-85
2023/05/29 08:19:03;;;;;;;3.70;2.83;;;;;;;26.78;34.69;100449.81;5007538;28;20212;-82
2023/05/29 08:21:32;;;;;;;6.55;3.20;;;;;;;26.60;34.82;100444.03;5013816;28;20771;-85
2023/05/29 08:23:58;;;;;;;4.88;2.97;;;;;;;27.37;33.23;100437.53;5006974;28;20178;-80
2023/05/29 08:26:23;;;;;;;5.00;3.00;;;;;;;27.64;32.41;100440.47;5010832;28;20209;-83
2023/05/29 08:28:48;;;;;;;5.07;3.45;;;;;;;27.77;32.90;100442.44;5011236;28;20183;-83
2023/05/29 08:31:14;;;;;;;3.85;3.15;;;;;;;28.16;31.39;100439.34;5011761;28;20240;-82
2023/05/29 08:33:39;;;;;;;4.43;2.72;;;;;;;27.36;31.08;100444.63;5010159;28;20193;-79
2023/05/29 08:36:05;;;;;;;3.42;2.72;;;;;;;28.76;30.45;100441.59;5001553;28;20666;-84
2023/05/29 08:38:30;;;;;;;5.18;2.92;;;;;;;28.64;30.28;100449.25;5009887;28;20210;-83
2023/05/29 08:40:58;;;;;;;7.53;3.28;;;;;;;28.59;31.12;100443.72;5009650;28;20230;-84
2023/05/29 08:43:25;;;;;;;7.20;2.83;;;;;;;27.70;31.32;100445.81;5011082;28;20187;-77
2023/05/29 08:45:53;;;;;;;4.47;3.17;;;;;;;27.68;32.19;100447.81;5010943;28;20202;-72
2023/05/29 08:48:23;;;;;;;3.83;2.95;;;;;;;28.13;32.11;100450.31;5011271;28;20183;-81
2023/05/29 08:50:52;;;;;;;4.32;3.25;;;;;;;28.03;31.97;100447.13;5003203;28;20370;-83
2023/05/29 08:53:18;;;;;;;6.47;3.10;;;;;;;26.68;34.05;100441.28;5010771;28;20277;-83
2023/05/29 08:55:45;;;;;;;5.10;2.70;;;;;;;26.46;34.32;100449.09;5013610;28;20261;-78
2023/05/29 08:58:11;;;;;;;4.40;3.30;;;;;;;27.53;33.40;100442.59;5014339;28;20179;-80
2023/05/29 09:00:36;;;;;;;7.97;3.47;;;;;;;26.51;33.76;100438.03;5001893;28;20299;-77
2023/05/29 09:03:03;;;;;;;5.28;3.22;;;;;;;26.63;33.49;100438.38;5019869;28;20186;-86
2023/05/29 09:05:29;;;;;;;4.30;3.22;;;;;;;27.18;33.27;100431.81;5010413;28;20183;-82
2023/05/29 09:07:55;;;;;;;10.38;3.67;;;;;;;26.74;34.53;100435.31;5026880;28;20171;-81
2023/05/29 09:10:22;;;;;;;4.30;3.28;;;;;;;27.25;34.36;100433.72;4991765;28;20183;-84
2023/05/29 09:12:49;;;;;;;8.27;3.40;;;;;;;27.95;31.98;100445.44;5010544;28;20222;-83
2023/05/29 09:15:20;;;;;;;5.35;3.10;;;;;;;27.92;32.12;100435.25;5017079;28;20522;-80
2023/05/29 09:17:56;;;;;;;5.25;3.13;;;;;;;28.71;31.20;100440.56;5012043;28;20191;-84
2023/05/29 09:20:23;;;;;;;5.50;3.10;;;;;;;29.21;30.19;100446.50;5002964;28;20234;-79
2023/05/29 09:23:00;;;;;;;4.95;2.97;;;;;;;29.89;29.49;100445.66;5018253;28;20190;-81
2023/05/29 09:25:27;;;;;;;4.75;3.03;;;;;;;29.47;29.86;100444.94;5009178;28;20232;-80
2023/05/29 09:28:02;;;;;;;6.38;2.83;;;;;;;28.70;30.56;100441.56;5010460;28;20186;-81
2023/05/29 09:30:43;;;;;;;5.68;3.22;;;;;;;28.77;31.11;100448.53;5003083;28;20320;-80
2023/05/29 09:33:11;;;;;;;5.82;3.03;;;;;;;28.34;31.34;100444.16;5003446;28;20193;-82
2023/05/29 09:35:39;;;;;;;3.90;3.00;;;;;;;28.12;30.79;100448.69;5009836;28;20305;-84
2023/05/29 09:38:05;;;;;;;6.50;3.30;;;;;;;27.63;31.01;100441.50;5010978;28;20183;-85
2023/05/29 09:40:35;;;;;;;4.65;3.15;;;;;;;28.31;30.99;100443.72;5005399;28;20309;-80
2023/05/29 09:43:17;;;;;;;8.30;3.22;;;;;;;28.59;30.51;100442.88;5006087;28;20294;-77
2023/05/29 09:45:50;;;;;;;8.30;3.28;;;;;;;29.91;29.23;100437.53;5009959;28;20190;-60
2023/05/29 09:48:22;;;;;;;8.05;3.22;;;;;;;31.13;27.89;100438.94;5010111;28;20170;-59
2023/05/29 09:50:48;;;;;;;4.00;2.75;;;;;;;30.57;28.31;100447.25;5003193;28;20242;-58
2023/05/29 09:53:19;;;;;;;6.85;2.78;;;;;;;30.36;28.49;100434.22;5004940;28;20190;-58
2023/05/29 09:55:46;;;;;;;4.68;2.85;;;;;;;30.04;29.23;100442.81;5023674;28;20226;-58
2023/05/29 09:58:13;;;;;;;6.22;3.00;;;;;;;28.14;29.96;100451.94;5010164;28;20237;-58
2023/05/29 10:00:40;;;;;;;4.78;3.10;;;;;;;28.77;28.99;100447.72;5002831;28;20257;-59
2023/05/29 10:03:05;;;;;;;8.05;3.33;;;;;;;29.49;27.92;100439.47;5018163;28;20183;-59
2023/05/29 10:05:31;;;;;;;4.25;3.38;;;;;;;29.21;29.25;100451.78;5010812;28;20203;-58
2023/05/29 10:07:59;;;;;;;4.68;3.08;;;;;;;29.37;29.38;100436.56;5011285;28;20183;-59
2023/05/29 10:10:26;;;;;;;4.63;2.83;;;;;;;29.85;29.42;100436.44;5002884;28;20229;-59
2023/05/29 10:12:53;;;;;;;5.25;3.22;;;;;;;29.79;29.04;100440.75;5009866;28;20344;-61
2023/05/29 10:15:20;;;;;;;8.18;3.15;;;;;;;30.04;28.91;100428.72;5003435;28;20213;-60
2023/05/29 10:18:02;;;;;;;3.65;2.97;;;;;;;29.84;28.62;100431.34;5009940;28;20341;-59
2023/05/29 10:20:28;;;;;;;4.30;3.08;;;;;;;29.81;28.00;100435.22;4997482;28;20295;-59
2023/05/29 10:22:56;;;;;;;4.10;2.90;;;;;;;30.05;27.33;100428.53;4999634;28;20198;-59
2023/05/29 10:25:24;;;;;;;3.20;2.80;;;;;;;30.30;27.59;100432.41;5023016;28;20783;-58
2023/05/29 10:27:50;;;;;;;10.07;2.90;;;;;;;29.16;29.04;100433.00;5009591;28;20183;-58
2023/05/29 10:30:18;;;;;;;4.93;2.53;;;;;;;30.40;26.76;100433.63;5001523;28;20554;-59
2023/05/29 10:32:56;;;;;;;4.97;3.10;;;;;;;29.76;26.69;100437.69;5010225;28;20190;-59
2023/05/29 10:35:41;;;;;;;7.25;3.10;;;;;;;28.63;27.73;100433.56;5009209;28;20606;-59
2023/05/29 10:38:16;;;;;;;5.53;2.65;;;;;;;28.64;28.17;100429.88;5009373;28;20222;-59
2023/05/29 10:40:42;;;;;;;5.57;2.90;;;;;;;27.43;28.90;100430.72;5003101;28;20233;-59
2023/05/29 10:43:10;;;;;;;4.88;3.20;;;;;;;26.08;30.89;100433.28;5008773;28;20217;-61
2023/05/29 10:45:47;;;;;;;5.28;3.42;;;;;;;25.52;32.41;100436.94;5011367;28;20209;-59
2023/05/29 10:48:13;;;;;;;3.72;2.80;;;;;;;25.42;31.54;100431.88;5012599;28;20234;-58
2023/05/29 10:50:46;;;;;;;3.65;3.10;;;;;;;24.80;32.98;100428.16;4997334;28;20234;-58
2023/05/29 10:53:23;;;;;;;3.92;3.28;;;;;;;24.85;32.62;100422.41;5009413;28;20257;-58
2023/05/29 10:55:48;;;;;;;5.45;3.08;;;;;;;24.41;32.84;100414.91;5019762;28;20217;-59
2023/05/29 10:58:24;;;;;;;4.15;2.80;;;;;;;24.14;33.68;100409.03;5012660;28;20221;-76
2023/05/29 11:00:53;;;;;;;3.95;2.83;;;;;;;24.17;33.39;100406.06;4993759;28;20264;-76
2023/05/29 11:03:21;;;;;;;4.55;2.45;;;;;;;24.21;32.31;100412.63;5003183;28;20190;-75
2023/05/29 11:06:10;;;;;;;3.75;3.17;;;;;;;24.10;32.27;100421.69;5026943;28;20592;-76
2023/05/29 11:08:45;;;;;;;3.67;3.30;;;;;;;24.17;33.44;100422.69;5012687;28;20310;-78
2023/05/29 11:11:15;;;;;;;4.70;2.80;;;;;;;23.99;32.70;100414.13;5005202;28;20229;-78
2023/05/29 11:13:44;;;;;;;3.53;2.88;;;;;;;24.13;32.57;100428.41;5012543;28;20656;-77
2023/05/29 11:16:39;;;;;;;3.10;2.73;;;;;;;24.06;31.98;100430.06;5011723;28;20214;-78
2023/05/29 11:19:10;;;;;;;3.00;2.47;;;;;;;23.72;31.25;100421.31;4952867;29;20213;-78
2023/05/29 11:21:44;;;;;;;4.73;2.77;;;;;;;23.59;31.80;100413.91;4925695;29;20665;-77